sensor_id;sensor_type;location;lat;lon;timestamp;P1;durP1;ratioP1;P2;durP2;ratioP2
75971;SDS011;64651;47.540;19.088;2023-10-19T00:02:04;22.67;;;11.33;;
75971;SDS011;64651;47.540;19.088;2023-10-19T00:07:07;21.33;;;11.12;;
75971;SDS011;64651;47.540;19.088;2023-10-19T00:12:17;20.45;;;10.48;;
75971;SDS011;64651;47.540;19.088;2023-10-19T00:17:23;20.13;;;10.53;;
75971;SDS011;64651;47.540;19.088;2023-10-19T00:22:28;20.05;;;10.50;;
75971;SDS011;64651;47.540;19.088;2023-10-19T00:27:33;20.17;;;10.43;;
75971;SDS011;64651;47.540;19.088;2023-10-19T00:32:35;18.95;;;10.48;;
75971;SDS011;64651;47.540;19.088;2023-10-19T00:37:40;18.55;;;9.90;;
75971;SDS011;64651;47.540;19.088;2023-10-19T00:42:44;18.87;;;9.93;;
75971;SDS011;64651;47.540;19.088;2023-10-19T00:47:48;19.98;;;10.60;;
75971;SDS011;64651;47.540;19.088;2023-10-19T00:52:50;20.73;;;10.53;;
75971;SDS011;64651;47.540;19.088;2023-10-19T00:57:53;18.50;;;9.98;;
75971;SDS011;64651;47.540;19.088;2023-10-19T01:02:57;19.95;;;9.77;;
75971;SDS011;64651;47.540;19.088;2023-10-19T01:08:03;19.53;;;10.17;;
75971;SDS011;64651;47.540;19.088;2023-10-19T01:13:21;18.00;;;9.77;;
75971;SDS011;64651;47.540;19.088;2023-10-19T01:18:29;18.63;;;10.33;;
75971;SDS011;64651;47.540;19.088;2023-10-19T01:23:34;22.27;;;9.82;;
75971;SDS011;64651;47.540;19.088;2023-10-19T01:28:38;19.23;;;10.60;;
75971;SDS011;64651;47.540;19.088;2023-10-19T01:33:43;18.77;;;9.53;;
75971;SDS011;64651;47.540;19.088;2023-10-19T01:38:46;20.92;;;10.70;;
75971;SDS011;64651;47.540;19.088;2023-10-19T01:43:50;21.00;;;10.67;;
75971;SDS011;64651;47.540;19.088;2023-10-19T01:48:55;19.48;;;10.60;;
75971;SDS011;64651;47.540;19.088;2023-10-19T01:53:58;21.62;;;11.43;;
75971;SDS011;64651;47.540;19.088;2023-10-19T01:59:03;21.50;;;11.17;;
75971;SDS011;64651;47.540;19.088;2023-10-19T02:04:06;24.00;;;11.80;;
75971;SDS011;64651;47.540;19.088;2023-10-19T02:09:12;22.67;;;11.97;;
75971;SDS011;64651;47.540;19.088;2023-10-19T02:14:17;24.15;;;12.63;;
75971;SDS011;64651;47.540;19.088;2023-10-19T02:19:21;22.80;;;12.02;;
75971;SDS011;64651;47.540;19.088;2023-10-19T02:24:25;23.80;;;13.07;;
75971;SDS011;64651;47.540;19.088;2023-10-19T02:29:30;25.40;;;13.30;;
75971;SDS011;64651;47.540;19.088;2023-10-19T02:34:33;26.27;;;14.20;;
75971;SDS011;64651;47.540;19.088;2023-10-19T02:39:38;26.87;;;15.10;;
75971;SDS011;64651;47.540;19.088;2023-10-19T02:44:44;26.15;;;14.38;;
75971;SDS011;64651;47.540;19.088;2023-10-19T02:49:46;25.87;;;13.93;;
75971;SDS011;64651;47.540;19.088;2023-10-19T02:54:53;26.65;;;15.13;;
75971;SDS011;64651;47.540;19.088;2023-10-19T02:59:58;28.70;;;14.77;;
75971;SDS011;64651;47.540;19.088;2023-10-19T03:05:02;30.10;;;17.37;;
75971;SDS011;64651;47.540;19.088;2023-10-19T03:10:14;30.37;;;16.83;;
75971;SDS011;64651;47.540;19.088;2023-10-19T03:15:27;31.90;;;18.17;;
75971;SDS011;64651;47.540;19.088;2023-10-19T03:20:32;36.58;;;19.33;;
75971;SDS011;64651;47.540;19.088;2023-10-19T03:25:35;35.37;;;20.17;;
75971;SDS011;64651;47.540;19.088;2023-10-19T03:31:06;36.65;;;21.10;;
75971;SDS011;64651;47.540;19.088;2023-10-19T03:36:09;36.25;;;21.12;;
75971;SDS011;64651;47.540;19.088;2023-10-19T03:41:15;34.47;;;18.73;;
75971;SDS011;64651;47.540;19.088;2023-10-19T03:46:18;34.63;;;18.65;;
75971;SDS011;64651;47.540;19.088;2023-10-19T03:51:30;37.57;;;19.37;;
75971;SDS011;64651;47.540;19.088;2023-10-19T03:56:42;37.58;;;20.98;;
75971;SDS011;64651;47.540;19.088;2023-10-19T04:01:44;39.35;;;20.65;;
75971;SDS011;64651;47.540;19.088;2023-10-19T04:06:46;37.13;;;19.83;;
75971;SDS011;64651;47.540;19.088;2023-10-19T04:11:49;39.42;;;21.58;;
75971;SDS011;64651;47.540;19.088;2023-10-19T04:16:53;37.93;;;20.20;;
75971;SDS011;64651;47.540;19.088;2023-10-19T04:21:55;39.08;;;22.10;;
75971;SDS011;64651;47.540;19.088;2023-10-19T04:26:57;42.65;;;22.98;;
75971;SDS011;64651;47.540;19.088;2023-10-19T04:32:01;42.13;;;21.73;;
75971;SDS011;64651;47.540;19.088;2023-10-19T04:37:03;43.15;;;22.90;;
75971;SDS011;64651;47.540;19.088;2023-10-19T04:42:05;39.83;;;21.23;;
75971;SDS011;64651;47.540;19.088;2023-10-19T04:47:08;40.88;;;21.73;;
75971;SDS011;64651;47.540;19.088;2023-10-19T04:52:10;36.30;;;20.60;;
75971;SDS011;64651;47.540;19.088;2023-10-19T04:57:12;39.43;;;22.30;;
75971;SDS011;64651;47.540;19.088;2023-10-19T05:02:14;38.40;;;20.33;;
75971;SDS011;64651;47.540;19.088;2023-10-19T05:07:17;39.93;;;19.90;;
75971;SDS011;64651;47.540;19.088;2023-10-19T05:12:19;37.67;;;20.12;;
75971;SDS011;64651;47.540;19.088;2023-10-19T05:17:21;33.80;;;19.12;;
75971;SDS011;64651;47.540;19.088;2023-10-19T05:22:25;34.63;;;18.90;;
75971;SDS011;64651;47.540;19.088;2023-10-19T05:27:31;33.97;;;20.00;;
75971;SDS011;64651;47.540;19.088;2023-10-19T05:32:33;37.43;;;19.97;;
75971;SDS011;64651;47.540;19.088;2023-10-19T05:37:36;37.45;;;19.80;;
75971;SDS011;64651;47.540;19.088;2023-10-19T05:42:38;37.33;;;18.77;;
75971;SDS011;64651;47.540;19.088;2023-10-19T05:47:40;39.37;;;18.40;;
75971;SDS011;64651;47.540;19.088;2023-10-19T05:52:43;37.45;;;18.67;;
75971;SDS011;64651;47.540;19.088;2023-10-19T05:57:46;37.40;;;19.90;;
75971;SDS011;64651;47.540;19.088;2023-10-19T06:02:48;37.30;;;19.60;;
75971;SDS011;64651;47.540;19.088;2023-10-19T06:07:51;37.30;;;19.92;;
75971;SDS011;64651;47.540;19.088;2023-10-19T06:12:54;37.10;;;19.40;;
75971;SDS011;64651;47.540;19.088;2023-10-19T06:17:56;37.28;;;19.02;;
75971;SDS011;64651;47.540;19.088;2023-10-19T06:22:59;33.37;;;18.07;;
75971;SDS011;64651;47.540;19.088;2023-10-19T06:28:07;34.95;;;18.00;;
75971;SDS011;64651;47.540;19.088;2023-10-19T06:33:09;36.63;;;20.42;;
75971;SDS011;64651;47.540;19.088;2023-10-19T06:38:12;39.23;;;19.87;;
75971;SDS011;64651;47.540;19.088;2023-10-19T06:43:15;39.20;;;19.87;;
75971;SDS011;64651;47.540;19.088;2023-10-19T06:48:17;39.43;;;19.60;;
75971;SDS011;64651;47.540;19.088;2023-10-19T06:53:19;37.50;;;19.27;;
75971;SDS011;64651;47.540;19.088;2023-10-19T06:58:21;32.33;;;17.42;;
75971;SDS011;64651;47.540;19.088;2023-10-19T07:03:23;35.83;;;19.13;;
75971;SDS011;64651;47.540;19.088;2023-10-19T07:08:26;34.80;;;18.73;;
75971;SDS011;64651;47.540;19.088;2023-10-19T07:13:29;32.50;;;17.27;;
75971;SDS011;64651;47.540;19.088;2023-10-19T07:18:35;31.10;;;17.08;;
75971;SDS011;64651;47.540;19.088;2023-10-19T07:23:38;31.90;;;16.80;;
75971;SDS011;64651;47.540;19.088;2023-10-19T07:28:42;30.73;;;16.23;;
75971;SDS011;64651;47.540;19.088;2023-10-19T07:33:44;29.63;;;16.45;;
75971;SDS011;64651;47.540;19.088;2023-10-19T07:38:51;30.30;;;17.17;;
75971;SDS011;64651;47.540;19.088;2023-10-19T07:43:54;26.83;;;15.68;;
75971;SDS011;64651;47.540;19.088;2023-10-19T07:48:56;32.38;;;16.62;;
75971;SDS011;64651;47.540;19.088;2023-10-19T07:54:01;30.17;;;16.20;;
75971;SDS011;64651;47.540;19.088;2023-10-19T07:59:03;28.73;;;16.75;;
75971;SDS011;64651;47.540;19.088;2023-10-19T08:04:05;30.80;;;16.43;;
75971;SDS011;64651;47.540;19.088;2023-10-19T08:09:07;32.58;;;16.98;;
75971;SDS011;64651;47.540;19.088;2023-10-19T08:14:13;28.52;;;15.60;;
75971;SDS011;64651;47.540;19.088;2023-10-19T08:19:18;30.40;;;16.40;;
75971;SDS011;64651;47.540;19.088;2023-10-19T08:24:20;30.65;;;16.87;;
75971;SDS011;64651;47.540;19.088;2023-10-19T08:29:22;30.07;;;16.33;;
75971;SDS011;64651;47.540;19.088;2023-10-19T08:34:25;28.62;;;16.08;;
75971;SDS011;64651;47.540;19.088;2023-10-19T08:39:32;27.20;;;14.40;;
75971;SDS011;64651;47.540;19.088;2023-10-19T08:44:38;29.07;;;15.43;;
75971;SDS011;64651;47.540;19.088;2023-10-19T08:49:40;30.25;;;16.25;;
75971;SDS011;64651;47.540;19.088;2023-10-19T08:54:43;32.30;;;18.03;;
75971;SDS011;64651;47.540;19.088;2023-10-19T08:59:45;27.85;;;16.27;;
75971;SDS011;64651;47.540;19.088;2023-10-19T09:04:48;29.58;;;16.35;;
75971;SDS011;64651;47.540;19.088;2023-10-19T09:09:51;28.10;;;15.30;;
75971;SDS011;64651;47.540;19.088;2023-10-19T09:14:53;30.52;;;16.27;;
75971;SDS011;64651;47.540;19.088;2023-10-19T09:19:56;27.40;;;15.57;;
75971;SDS011;64651;47.540;19.088;2023-10-19T09:24:58;28.65;;;15.50;;
75971;SDS011;64651;47.540;19.088;2023-10-19T09:30:00;26.25;;;15.85;;
75971;SDS011;64651;47.540;19.088;2023-10-19T09:35:04;25.97;;;15.73;;
75971;SDS011;64651;47.540;19.088;2023-10-19T09:40:08;24.40;;;15.82;;
75971;SDS011;64651;47.540;19.088;2023-10-19T09:45:16;25.17;;;16.20;;
75971;SDS011;64651;47.540;19.088;2023-10-19T09:50:21;26.67;;;16.12;;
75971;SDS011;64651;47.540;19.088;2023-10-19T09:55:28;24.75;;;15.18;;
75971;SDS011;64651;47.540;19.088;2023-10-19T10:00:35;26.20;;;16.77;;
75971;SDS011;64651;47.540;19.088;2023-10-19T10:10:40;26.63;;;16.23;;
75971;SDS011;64651;47.540;19.088;2023-10-19T10:15:42;26.52;;;16.45;;
75971;SDS011;64651;47.540;19.088;2023-10-19T10:20:45;27.85;;;16.40;;
75971;SDS011;64651;47.540;19.088;2023-10-19T10:25:49;25.83;;;16.73;;
75971;SDS011;64651;47.540;19.088;2023-10-19T10:36:21;26.83;;;16.90;;
75971;SDS011;64651;47.540;19.088;2023-10-19T10:41:24;28.00;;;16.92;;
75971;SDS011;64651;47.540;19.088;2023-10-19T10:46:30;25.58;;;16.35;;
75971;SDS011;64651;47.540;19.088;2023-10-19T10:51:34;26.83;;;15.87;;
75971;SDS011;64651;47.540;19.088;2023-10-19T10:56:39;27.42;;;17.58;;
75971;SDS011;64651;47.540;19.088;2023-10-19T11:01:43;28.63;;;17.13;;
75971;SDS011;64651;47.540;19.088;2023-10-19T11:06:52;29.58;;;16.77;;
75971;SDS011;64651;47.540;19.088;2023-10-19T11:11:57;29.90;;;17.25;;
75971;SDS011;64651;47.540;19.088;2023-10-19T11:17:11;28.53;;;18.10;;
75971;SDS011;64651;47.540;19.088;2023-10-19T11:22:15;28.83;;;17.27;;
75971;SDS011;64651;47.540;19.088;2023-10-19T11:27:24;28.43;;;16.83;;
75971;SDS011;64651;47.540;19.088;2023-10-19T11:32:37;30.08;;;18.15;;
75971;SDS011;64651;47.540;19.088;2023-10-19T11:37:46;29.65;;;16.73;;
75971;SDS011;64651;47.540;19.088;2023-10-19T11:42:52;28.47;;;18.17;;
75971;SDS011;64651;47.540;19.088;2023-10-19T11:47:58;28.87;;;18.23;;
75971;SDS011;64651;47.540;19.088;2023-10-19T11:53:01;30.27;;;18.77;;
75971;SDS011;64651;47.540;19.088;2023-10-19T11:58:05;30.70;;;18.73;;
75971;SDS011;64651;47.540;19.088;2023-10-19T12:03:07;29.58;;;18.70;;
75971;SDS011;64651;47.540;19.088;2023-10-19T12:08:09;28.20;;;18.17;;
75971;SDS011;64651;47.540;19.088;2023-10-19T12:13:12;29.55;;;19.20;;
75971;SDS011;64651;47.540;19.088;2023-10-19T12:18:15;28.90;;;19.13;;
75971;SDS011;64651;47.540;19.088;2023-10-19T12:23:17;27.02;;;18.05;;
75971;SDS011;64651;47.540;19.088;2023-10-19T12:28:19;28.50;;;19.33;;
75971;SDS011;64651;47.540;19.088;2023-10-19T12:33:21;28.70;;;18.80;;
75971;SDS011;64651;47.540;19.088;2023-10-19T12:38:23;30.20;;;20.17;;
75971;SDS011;64651;47.540;19.088;2023-10-19T12:43:27;29.20;;;18.80;;
75971;SDS011;64651;47.540;19.088;2023-10-19T12:48:32;31.15;;;20.77;;
75971;SDS011;64651;47.540;19.088;2023-10-19T12:53:35;32.30;;;20.27;;
75971;SDS011;64651;47.540;19.088;2023-10-19T12:58:38;33.83;;;21.77;;
75971;SDS011;64651;47.540;19.088;2023-10-19T13:03:41;31.48;;;20.25;;
75971;SDS011;64651;47.540;19.088;2023-10-19T13:08:44;34.47;;;20.43;;
75971;SDS011;64651;47.540;19.088;2023-10-19T13:13:46;30.08;;;18.77;;
75971;SDS011;64651;47.540;19.088;2023-10-19T13:18:49;31.77;;;19.58;;
75971;SDS011;64651;47.540;19.088;2023-10-19T13:23:51;32.33;;;19.60;;
75971;SDS011;64651;47.540;19.088;2023-10-19T13:28:53;32.72;;;20.25;;
75971;SDS011;64651;47.540;19.088;2023-10-19T13:33:57;31.17;;;20.00;;
75971;SDS011;64651;47.540;19.088;2023-10-19T13:39:01;32.75;;;19.87;;
75971;SDS011;64651;47.540;19.088;2023-10-19T13:44:05;33.78;;;21.73;;
75971;SDS011;64651;47.540;19.088;2023-10-19T13:49:07;33.37;;;19.80;;
75971;SDS011;64651;47.540;19.088;2023-10-19T13:54:11;31.23;;;20.92;;
75971;SDS011;64651;47.540;19.088;2023-10-19T13:59:14;33.23;;;19.20;;
75971;SDS011;64651;47.540;19.088;2023-10-19T14:04:17;35.10;;;20.48;;
75971;SDS011;64651;47.540;19.088;2023-10-19T14:09:19;35.42;;;20.62;;
75971;SDS011;64651;47.540;19.088;2023-10-19T14:14:25;34.43;;;20.03;;
75971;SDS011;64651;47.540;19.088;2023-10-19T14:19:27;38.83;;;21.17;;
75971;SDS011;64651;47.540;19.088;2023-10-19T14:24:33;31.97;;;19.67;;
75971;SDS011;64651;47.540;19.088;2023-10-19T14:29:35;38.80;;;21.08;;
75971;SDS011;64651;47.540;19.088;2023-10-19T14:34:37;36.97;;;20.65;;
75971;SDS011;64651;47.540;19.088;2023-10-19T14:39:39;36.60;;;21.43;;
75971;SDS011;64651;47.540;19.088;2023-10-19T14:44:42;37.20;;;21.02;;
75971;SDS011;64651;47.540;19.088;2023-10-19T14:49:44;37.07;;;20.83;;
75971;SDS011;64651;47.540;19.088;2023-10-19T14:54:46;37.55;;;20.20;;
75971;SDS011;64651;47.540;19.088;2023-10-19T14:59:49;39.35;;;21.92;;
75971;SDS011;64651;47.540;19.088;2023-10-19T15:04:51;39.30;;;21.47;;
75971;SDS011;64651;47.540;19.088;2023-10-19T15:09:53;41.00;;;21.98;;
75971;SDS011;64651;47.540;19.088;2023-10-19T15:14:55;40.03;;;21.83;;
75971;SDS011;64651;47.540;19.088;2023-10-19T15:19:59;45.17;;;23.05;;
75971;SDS011;64651;47.540;19.088;2023-10-19T15:25:01;45.63;;;23.08;;
75971;SDS011;64651;47.540;19.088;2023-10-19T15:30:05;43.30;;;22.60;;
75971;SDS011;64651;47.540;19.088;2023-10-19T15:35:09;48.33;;;23.58;;
75971;SDS011;64651;47.540;19.088;2023-10-19T15:40:13;46.57;;;22.80;;
75971;SDS011;64651;47.540;19.088;2023-10-19T15:45:16;48.15;;;24.30;;
75971;SDS011;64651;47.540;19.088;2023-10-19T15:50:21;48.97;;;23.05;;
75971;SDS011;64651;47.540;19.088;2023-10-19T15:55:24;53.73;;;23.97;;
75971;SDS011;64651;47.540;19.088;2023-10-19T16:00:28;50.95;;;23.85;;
75971;SDS011;64651;47.540;19.088;2023-10-19T16:05:30;51.57;;;23.63;;
75971;SDS011;64651;47.540;19.088;2023-10-19T16:10:32;52.25;;;23.17;;
75971;SDS011;64651;47.540;19.088;2023-10-19T16:15:34;54.22;;;23.65;;
75971;SDS011;64651;47.540;19.088;2023-10-19T16:20:37;51.93;;;22.87;;
75971;SDS011;64651;47.540;19.088;2023-10-19T16:25:40;49.33;;;23.58;;
75971;SDS011;64651;47.540;19.088;2023-10-19T16:30:43;50.10;;;23.00;;
75971;SDS011;64651;47.540;19.088;2023-10-19T16:35:46;53.25;;;23.35;;
75971;SDS011;64651;47.540;19.088;2023-10-19T16:40:49;52.72;;;23.70;;
75971;SDS011;64651;47.540;19.088;2023-10-19T16:45:52;56.70;;;22.77;;
75971;SDS011;64651;47.540;19.088;2023-10-19T16:50:59;53.00;;;23.83;;
75971;SDS011;64651;47.540;19.088;2023-10-19T16:56:03;52.40;;;24.07;;
75971;SDS011;64651;47.540;19.088;2023-10-19T17:01:06;53.13;;;23.62;;
75971;SDS011;64651;47.540;19.088;2023-10-19T17:06:11;51.85;;;23.52;;
75971;SDS011;64651;47.540;19.088;2023-10-19T17:11:14;52.67;;;24.27;;
75971;SDS011;64651;47.540;19.088;2023-10-19T17:16:17;49.65;;;24.55;;
75971;SDS011;64651;47.540;19.088;2023-10-19T17:21:19;51.73;;;23.83;;
75971;SDS011;64651;47.540;19.088;2023-10-19T17:26:22;53.50;;;25.12;;
75971;SDS011;64651;47.540;19.088;2023-10-19T17:31:24;53.95;;;25.08;;
75971;SDS011;64651;47.540;19.088;2023-10-19T17:36:27;50.27;;;25.13;;
75971;SDS011;64651;47.540;19.088;2023-10-19T17:41:29;51.30;;;25.20;;
75971;SDS011;64651;47.540;19.088;2023-10-19T17:46:32;46.67;;;23.37;;
75971;SDS011;64651;47.540;19.088;2023-10-19T17:51:36;45.38;;;23.35;;
75971;SDS011;64651;47.540;19.088;2023-10-19T17:56:38;45.05;;;22.52;;
75971;SDS011;64651;47.540;19.088;2023-10-19T18:01:40;46.10;;;23.90;;
75971;SDS011;64651;47.540;19.088;2023-10-19T18:06:43;47.10;;;23.30;;
75971;SDS011;64651;47.540;19.088;2023-10-19T18:11:48;47.17;;;23.73;;
75971;SDS011;64651;47.540;19.088;2023-10-19T18:16:50;48.63;;;23.87;;
75971;SDS011;64651;47.540;19.088;2023-10-19T18:21:55;49.58;;;23.12;;
75971;SDS011;64651;47.540;19.088;2023-10-19T18:27:00;46.47;;;22.13;;
75971;SDS011;64651;47.540;19.088;2023-10-19T18:32:04;45.50;;;21.80;;
75971;SDS011;64651;47.540;19.088;2023-10-19T18:37:06;51.57;;;23.47;;
75971;SDS011;64651;47.540;19.088;2023-10-19T18:42:08;46.50;;;22.40;;
75971;SDS011;64651;47.540;19.088;2023-10-19T18:47:11;48.95;;;23.48;;
75971;SDS011;64651;47.540;19.088;2023-10-19T18:52:13;49.07;;;22.90;;
75971;SDS011;64651;47.540;19.088;2023-10-19T18:57:16;49.35;;;22.65;;
75971;SDS011;64651;47.540;19.088;2023-10-19T19:02:18;51.37;;;23.57;;
75971;SDS011;64651;47.540;19.088;2023-10-19T19:07:20;49.95;;;23.08;;
75971;SDS011;64651;47.540;19.088;2023-10-19T19:12:24;51.58;;;23.50;;
75971;SDS011;64651;47.540;19.088;2023-10-19T19:17:27;46.77;;;21.90;;
75971;SDS011;64651;47.540;19.088;2023-10-19T19:22:29;53.03;;;24.48;;
75971;SDS011;64651;47.540;19.088;2023-10-19T19:27:35;53.20;;;22.73;;
75971;SDS011;64651;47.540;19.088;2023-10-19T19:32:38;51.28;;;23.20;;
75971;SDS011;64651;47.540;19.088;2023-10-19T19:37:40;56.22;;;25.67;;
75971;SDS011;64651;47.540;19.088;2023-10-19T19:42:43;55.63;;;23.77;;
75971;SDS011;64651;47.540;19.088;2023-10-19T19:47:47;62.20;;;24.90;;
75971;SDS011;64651;47.540;19.088;2023-10-19T19:52:50;56.53;;;24.13;;
75971;SDS011;64651;47.540;19.088;2023-10-19T19:57:54;53.30;;;25.08;;
75971;SDS011;64651;47.540;19.088;2023-10-19T20:02:56;51.90;;;23.48;;
75971;SDS011;64651;47.540;19.088;2023-10-19T20:07:59;48.63;;;22.10;;
75971;SDS011;64651;47.540;19.088;2023-10-19T20:13:02;48.90;;;23.08;;
75971;SDS011;64651;47.540;19.088;2023-10-19T20:18:05;48.47;;;21.20;;
75971;SDS011;64651;47.540;19.088;2023-10-19T20:23:07;49.72;;;22.87;;
75971;SDS011;64651;47.540;19.088;2023-10-19T20:28:11;46.22;;;21.77;;
75971;SDS011;64651;47.540;19.088;2023-10-19T20:33:14;43.30;;;21.43;;
75971;SDS011;64651;47.540;19.088;2023-10-19T20:38:16;48.10;;;22.10;;
75971;SDS011;64651;47.540;19.088;2023-10-19T20:43:21;44.37;;;21.83;;
75971;SDS011;64651;47.540;19.088;2023-10-19T20:48:23;47.55;;;21.92;;
75971;SDS011;64651;47.540;19.088;2023-10-19T20:53:26;44.38;;;21.42;;
75971;SDS011;64651;47.540;19.088;2023-10-19T20:58:28;44.23;;;21.17;;
75971;SDS011;64651;47.540;19.088;2023-10-19T21:03:30;45.05;;;21.62;;
75971;SDS011;64651;47.540;19.088;2023-10-19T21:08:32;49.80;;;24.80;;
75971;SDS011;64651;47.540;19.088;2023-10-19T21:13:35;42.38;;;20.42;;
75971;SDS011;64651;47.540;19.088;2023-10-19T21:18:38;41.05;;;20.37;;
75971;SDS011;64651;47.540;19.088;2023-10-19T21:23:42;45.07;;;20.73;;
75971;SDS011;64651;47.540;19.088;2023-10-19T21:28:44;42.55;;;20.88;;
75971;SDS011;64651;47.540;19.088;2023-10-19T21:33:46;43.73;;;21.30;;
75971;SDS011;64651;47.540;19.088;2023-10-19T21:38:49;41.28;;;20.00;;
75971;SDS011;64651;47.540;19.088;2023-10-19T21:43:52;38.45;;;19.15;;
75971;SDS011;64651;47.540;19.088;2023-10-19T21:48:55;38.57;;;19.13;;
75971;SDS011;64651;47.540;19.088;2023-10-19T21:53:57;39.38;;;18.83;;
75971;SDS011;64651;47.540;19.088;2023-10-19T21:59:00;40.77;;;20.10;;
75971;SDS011;64651;47.540;19.088;2023-10-19T22:04:02;38.35;;;19.08;;
75971;SDS011;64651;47.540;19.088;2023-10-19T22:09:05;39.22;;;19.67;;
75971;SDS011;64651;47.540;19.088;2023-10-19T22:14:18;39.70;;;20.37;;
75971;SDS011;64651;47.540;19.088;2023-10-19T22:19:20;40.60;;;20.15;;
75971;SDS011;64651;47.540;19.088;2023-10-19T22:24:23;40.50;;;20.13;;
75971;SDS011;64651;47.540;19.088;2023-10-19T22:29:26;41.78;;;19.98;;
75971;SDS011;64651;47.540;19.088;2023-10-19T22:34:28;40.58;;;20.35;;
75971;SDS011;64651;47.540;19.088;2023-10-19T22:39:30;45.67;;;23.83;;
75971;SDS011;64651;47.540;19.088;2023-10-19T22:44:32;43.78;;;21.95;;
75971;SDS011;64651;47.540;19.088;2023-10-19T22:49:35;44.30;;;21.70;;
75971;SDS011;64651;47.540;19.088;2023-10-19T22:54:37;43.75;;;21.23;;
75971;SDS011;64651;47.540;19.088;2023-10-19T22:59:39;39.35;;;20.95;;
75971;SDS011;64651;47.540;19.088;2023-10-19T23:04:41;42.60;;;22.47;;
75971;SDS011;64651;47.540;19.088;2023-10-19T23:09:44;44.00;;;22.37;;
75971;SDS011;64651;47.540;19.088;2023-10-19T23:14:46;39.23;;;20.73;;
75971;SDS011;64651;47.540;19.088;2023-10-19T23:19:49;39.78;;;19.75;;
75971;SDS011;64651;47.540;19.088;2023-10-19T23:24:55;39.00;;;19.45;;
75971;SDS011;64651;47.540;19.088;2023-10-19T23:30:02;38.93;;;19.37;;
75971;SDS011;64651;47.540;19.088;2023-10-19T23:35:08;38.70;;;20.60;;
75971;SDS011;64651;47.540;19.088;2023-10-19T23:40:11;39.83;;;19.80;;
75971;SDS011;64651;47.540;19.088;2023-10-19T23:45:16;38.60;;;19.08;;
75971;SDS011;64651;47.540;19.088;2023-10-19T23:50:18;68.35;;;37.15;;
75971;SDS011;64651;47.540;19.088;2023-10-19T23:55:21;48.30;;;27.23;;
